sensor_id;sensor_type;location;lat;lon;timestamp;temperature;humidity
35325;DHT22;35135;47.510;19.036;2022-07-10T00:01:48;25.00;41.30
35325;DHT22;35135;47.510;19.036;2022-07-10T00:04:19;25.00;41.00
35325;DHT22;35135;47.510;19.036;2022-07-10T00:06:49;25.00;41.20
35325;DHT22;35135;47.510;19.036;2022-07-10T00:09:38;25.00;41.60
35325;DHT22;35135;47.510;19.036;2022-07-10T00:12:52;25.00;41.60
35325;DHT22;35135;47.510;19.036;2022-07-10T00:16:01;24.90;42.40
35325;DHT22;35135;47.510;19.036;2022-07-10T00:18:32;24.90;41.90
35325;DHT22;35135;47.510;19.036;2022-07-10T00:21:07;24.90;42.40
35325;DHT22;35135;47.510;19.036;2022-07-10T00:23:45;24.90;42.50
35325;DHT22;35135;47.510;19.036;2022-07-10T00:26:17;24.90;42.60
35325;DHT22;35135;47.510;19.036;2022-07-10T00:28:55;24.80;42.90
35325;DHT22;35135;47.510;19.036;2022-07-10T00:31:27;24.80;43.10
35325;DHT22;35135;47.510;19.036;2022-07-10T00:34:27;24.80;43.00
35325;DHT22;35135;47.510;19.036;2022-07-10T00:37:04;24.80;43.10
35325;DHT22;35135;47.510;19.036;2022-07-10T00:39:33;24.80;43.20
35325;DHT22;35135;47.510;19.036;2022-07-10T00:42:12;24.80;43.30
35325;DHT22;35135;47.510;19.036;2022-07-10T00:44:43;24.80;43.40
35325;DHT22;35135;47.510;19.036;2022-07-10T00:47:26;24.70;43.60
35325;DHT22;35135;47.510;19.036;2022-07-10T00:50:07;24.70;43.40
35325;DHT22;35135;47.510;19.036;2022-07-10T00:52:39;24.70;43.80
35325;DHT22;35135;47.510;19.036;2022-07-10T00:55:16;24.70;43.50
35325;DHT22;35135;47.510;19.036;2022-07-10T00:57:44;24.70;43.90
35325;DHT22;35135;47.510;19.036;2022-07-10T01:00:36;24.70;44.00
35325;DHT22;35135;47.510;19.036;2022-07-10T01:03:14;24.70;43.80
35325;DHT22;35135;47.510;19.036;2022-07-10T01:05:51;24.70;44.10
35325;DHT22;35135;47.510;19.036;2022-07-10T01:08:18;24.60;43.90
35325;DHT22;35135;47.510;19.036;2022-07-10T01:11:10;24.70;44.20
35325;DHT22;35135;47.510;19.036;2022-07-10T01:14:01;24.60;44.20
35325;DHT22;35135;47.510;19.036;2022-07-10T01:16:31;24.60;44.40
35325;DHT22;35135;47.510;19.036;2022-07-10T01:19:27;24.60;44.40
35325;DHT22;35135;47.510;19.036;2022-07-10T01:22:26;24.60;44.20
35325;DHT22;35135;47.510;19.036;2022-07-10T01:25:12;24.60;44.20
35325;DHT22;35135;47.510;19.036;2022-07-10T01:27:51;24.60;44.50
35325;DHT22;35135;47.510;19.036;2022-07-10T01:30:25;24.60;44.80
35325;DHT22;35135;47.510;19.036;2022-07-10T01:32:55;24.60;44.70
35325;DHT22;35135;47.510;19.036;2022-07-10T01:35:21;24.60;45.00
35325;DHT22;35135;47.510;19.036;2022-07-10T01:38:10;24.50;44.90
35325;DHT22;35135;47.510;19.036;2022-07-10T01:40:58;24.50;45.00
35325;DHT22;35135;47.510;19.036;2022-07-10T01:43:26;24.50;45.10
35325;DHT22;35135;47.510;19.036;2022-07-10T01:46:03;24.50;45.20
35325;DHT22;35135;47.510;19.036;2022-07-10T01:48:33;24.50;45.50
35325;DHT22;35135;47.510;19.036;2022-07-10T01:51:15;24.50;45.60
35325;DHT22;35135;47.510;19.036;2022-07-10T01:54:04;24.40;45.40
35325;DHT22;35135;47.510;19.036;2022-07-10T01:56:41;24.40;45.40
35325;DHT22;35135;47.510;19.036;2022-07-10T01:59:14;24.40;45.70
35325;DHT22;35135;47.510;19.036;2022-07-10T02:01:46;24.40;45.60
35325;DHT22;35135;47.510;19.036;2022-07-10T02:04:12;24.30;45.70
35325;DHT22;35135;47.510;19.036;2022-07-10T02:07:05;24.30;45.80
35325;DHT22;35135;47.510;19.036;2022-07-10T02:09:42;24.30;45.70
35325;DHT22;35135;47.510;19.036;2022-07-10T02:12:16;24.30;46.10
35325;DHT22;35135;47.510;19.036;2022-07-10T02:14:47;24.30;46.20
35325;DHT22;35135;47.510;19.036;2022-07-10T02:17:15;24.20;46.20
35325;DHT22;35135;47.510;19.036;2022-07-10T02:19:46;24.20;46.30
35325;DHT22;35135;47.510;19.036;2022-07-10T02:22:32;24.20;46.30
35325;DHT22;35135;47.510;19.036;2022-07-10T02:25:18;24.10;46.30
35325;DHT22;35135;47.510;19.036;2022-07-10T02:27:54;24.10;46.40
35325;DHT22;35135;47.510;19.036;2022-07-10T02:30:28;24.10;46.30
35325;DHT22;35135;47.510;19.036;2022-07-10T02:33:29;24.10;46.50
35325;DHT22;35135;47.510;19.036;2022-07-10T02:36:19;24.10;46.40
35325;DHT22;35135;47.510;19.036;2022-07-10T02:39:02;24.10;46.70
35325;DHT22;35135;47.510;19.036;2022-07-10T02:41:51;24.10;46.80
35325;DHT22;35135;47.510;19.036;2022-07-10T02:44:23;24.00;46.80
35325;DHT22;35135;47.510;19.036;2022-07-10T02:46:56;24.00;46.90
35325;DHT22;35135;47.510;19.036;2022-07-10T02:49:34;24.00;47.00
35325;DHT22;35135;47.510;19.036;2022-07-10T02:52:07;24.00;47.10
35325;DHT22;35135;47.510;19.036;2022-07-10T02:54:38;23.90;47.30
35325;DHT22;35135;47.510;19.036;2022-07-10T02:57:05;23.90;47.60
35325;DHT22;35135;47.510;19.036;2022-07-10T02:59:41;23.90;47.40
35325;DHT22;35135;47.510;19.036;2022-07-10T03:02:14;23.90;47.70
35325;DHT22;35135;47.510;19.036;2022-07-10T03:04:49;23.90;47.50
35325;DHT22;35135;47.510;19.036;2022-07-10T03:07:17;23.90;47.60
35325;DHT22;35135;47.510;19.036;2022-07-10T03:09:53;23.80;47.60
35325;DHT22;35135;47.510;19.036;2022-07-10T03:12:22;23.80;47.70
35325;DHT22;35135;47.510;19.036;2022-07-10T03:14:53;23.80;47.80
35325;DHT22;35135;47.510;19.036;2022-07-10T03:17:42;23.80;48.00
35325;DHT22;35135;47.510;19.036;2022-07-10T03:20:14;23.70;47.90
35325;DHT22;35135;47.510;19.036;2022-07-10T03:22:53;23.70;48.00
35325;DHT22;35135;47.510;19.036;2022-07-10T03:25:29;23.70;48.20
35325;DHT22;35135;47.510;19.036;2022-07-10T03:28:12;23.70;48.30
35325;DHT22;35135;47.510;19.036;2022-07-10T03:30:45;23.60;48.30
35325;DHT22;35135;47.510;19.036;2022-07-10T03:33:47;23.70;48.50
35325;DHT22;35135;47.510;19.036;2022-07-10T03:36:22;23.60;48.70
35325;DHT22;35135;47.510;19.036;2022-07-10T03:39:00;23.60;48.60
35325;DHT22;35135;47.510;19.036;2022-07-10T03:41:32;23.60;48.60
35325;DHT22;35135;47.510;19.036;2022-07-10T03:44:26;23.50;48.80
35325;DHT22;35135;47.510;19.036;2022-07-10T03:47:18;23.50;49.00
35325;DHT22;35135;47.510;19.036;2022-07-10T03:49:50;23.50;49.00
35325;DHT22;35135;47.510;19.036;2022-07-10T03:52:38;23.50;48.90
35325;DHT22;35135;47.510;19.036;2022-07-10T03:55:20;23.50;49.10
35325;DHT22;35135;47.510;19.036;2022-07-10T03:58:05;23.50;49.10
35325;DHT22;35135;47.510;19.036;2022-07-10T04:01:02;23.50;49.10
35325;DHT22;35135;47.510;19.036;2022-07-10T04:03:52;23.40;48.80
35325;DHT22;35135;47.510;19.036;2022-07-10T04:06:25;23.40;49.00
35325;DHT22;35135;47.510;19.036;2022-07-10T04:08:56;23.50;48.90
35325;DHT22;35135;47.510;19.036;2022-07-10T04:11:47;23.50;48.40
35325;DHT22;35135;47.510;19.036;2022-07-10T04:14:33;23.60;49.10
35325;DHT22;35135;47.510;19.036;2022-07-10T04:17:47;23.60;48.90
35325;DHT22;35135;47.510;19.036;2022-07-10T04:20:28;23.70;49.10
35325;DHT22;35135;47.510;19.036;2022-07-10T04:23:21;23.70;49.30
35325;DHT22;35135;47.510;19.036;2022-07-10T04:25:52;23.80;49.10
35325;DHT22;35135;47.510;19.036;2022-07-10T04:28:21;23.80;48.90
35325;DHT22;35135;47.510;19.036;2022-07-10T04:31:01;23.80;49.00
35325;DHT22;35135;47.510;19.036;2022-07-10T04:34:19;23.80;48.90
35325;DHT22;35135;47.510;19.036;2022-07-10T04:36:49;23.90;48.70
35325;DHT22;35135;47.510;19.036;2022-07-10T04:39:21;23.90;48.80
35325;DHT22;35135;47.510;19.036;2022-07-10T04:41:51;24.00;48.90
35325;DHT22;35135;47.510;19.036;2022-07-10T04:44:27;24.10;48.80
35325;DHT22;35135;47.510;19.036;2022-07-10T04:47:09;24.10;48.70
35325;DHT22;35135;47.510;19.036;2022-07-10T04:49:48;24.10;48.60
35325;DHT22;35135;47.510;19.036;2022-07-10T04:52:29;24.20;48.70
35325;DHT22;35135;47.510;19.036;2022-07-10T04:55:11;24.20;48.40
35325;DHT22;35135;47.510;19.036;2022-07-10T04:58:12;24.20;48.50
35325;DHT22;35135;47.510;19.036;2022-07-10T05:00:58;24.30;48.40
35325;DHT22;35135;47.510;19.036;2022-07-10T05:03:55;24.30;48.40
35325;DHT22;35135;47.510;19.036;2022-07-10T05:06:36;24.30;48.10
35325;DHT22;35135;47.510;19.036;2022-07-10T05:09:03;24.40;48.40
35325;DHT22;35135;47.510;19.036;2022-07-10T05:11:35;24.40;48.80
35325;DHT22;35135;47.510;19.036;2022-07-10T05:14:32;24.40;48.20
35325;DHT22;35135;47.510;19.036;2022-07-10T05:17:18;24.50;48.10
35325;DHT22;35135;47.510;19.036;2022-07-10T05:19:58;24.50;47.90
35325;DHT22;35135;47.510;19.036;2022-07-10T05:22:29;24.60;48.00
35325;DHT22;35135;47.510;19.036;2022-07-10T05:25:01;24.60;48.00
35325;DHT22;35135;47.510;19.036;2022-07-10T05:27:40;24.70;47.80
35325;DHT22;35135;47.510;19.036;2022-07-10T05:30:12;24.70;47.70
35325;DHT22;35135;47.510;19.036;2022-07-10T05:32:45;24.70;47.50
35325;DHT22;35135;47.510;19.036;2022-07-10T05:35:16;24.70;47.50
35325;DHT22;35135;47.510;19.036;2022-07-10T05:37:46;24.80;47.50
35325;DHT22;35135;47.510;19.036;2022-07-10T05:40:35;24.80;47.40
35325;DHT22;35135;47.510;19.036;2022-07-10T05:43:03;24.90;47.40
35325;DHT22;35135;47.510;19.036;2022-07-10T05:45:46;24.90;47.20
35325;DHT22;35135;47.510;19.036;2022-07-10T05:48:42;25.00;47.10
35325;DHT22;35135;47.510;19.036;2022-07-10T05:51:14;25.00;46.90
35325;DHT22;35135;47.510;19.036;2022-07-10T05:53:47;25.00;46.80
35325;DHT22;35135;47.510;19.036;2022-07-10T05:56:14;25.10;46.70
35325;DHT22;35135;47.510;19.036;2022-07-10T05:59:01;25.10;46.60
35325;DHT22;35135;47.510;19.036;2022-07-10T06:01:41;25.10;46.60
35325;DHT22;35135;47.510;19.036;2022-07-10T06:04:13;25.10;46.40
35325;DHT22;35135;47.510;19.036;2022-07-10T06:06:55;25.20;46.50
35325;DHT22;35135;47.510;19.036;2022-07-10T06:09:22;25.20;46.20
35325;DHT22;35135;47.510;19.036;2022-07-10T06:11:52;25.20;46.30
35325;DHT22;35135;47.510;19.036;2022-07-10T06:14:33;25.30;46.20
35325;DHT22;35135;47.510;19.036;2022-07-10T06:17:05;25.30;46.00
35325;DHT22;35135;47.510;19.036;2022-07-10T06:19:44;25.30;46.00
35325;DHT22;35135;47.510;19.036;2022-07-10T06:22:46;25.30;45.90
35325;DHT22;35135;47.510;19.036;2022-07-10T06:25:39;25.40;45.80
35325;DHT22;35135;47.510;19.036;2022-07-10T06:28:14;25.50;45.90
35325;DHT22;35135;47.510;19.036;2022-07-10T06:30:39;25.50;45.70
35325;DHT22;35135;47.510;19.036;2022-07-10T06:33:07;25.50;45.60
35325;DHT22;35135;47.510;19.036;2022-07-10T06:35:35;25.60;44.80
35325;DHT22;35135;47.510;19.036;2022-07-10T06:38:02;25.60;44.90
35325;DHT22;35135;47.510;19.036;2022-07-10T06:40:50;25.60;44.60
35325;DHT22;35135;47.510;19.036;2022-07-10T06:43:43;25.60;44.50
35325;DHT22;35135;47.510;19.036;2022-07-10T06:46:22;25.60;44.60
35325;DHT22;35135;47.510;19.036;2022-07-10T06:48:52;25.50;44.40
35325;DHT22;35135;47.510;19.036;2022-07-10T06:51:43;25.50;44.30
35325;DHT22;35135;47.510;19.036;2022-07-10T06:54:19;25.50;44.30
35325;DHT22;35135;47.510;19.036;2022-07-10T06:56:58;25.50;44.30
35325;DHT22;35135;47.510;19.036;2022-07-10T06:59:29;25.40;43.80
35325;DHT22;35135;47.510;19.036;2022-07-10T07:02:01;25.40;43.60
35325;DHT22;35135;47.510;19.036;2022-07-10T07:04:34;25.40;43.80
35325;DHT22;35135;47.510;19.036;2022-07-10T07:07:02;25.40;43.40
35325;DHT22;35135;47.510;19.036;2022-07-10T07:09:42;25.40;43.60
35325;DHT22;35135;47.510;19.036;2022-07-10T07:12:25;25.30;43.60
35325;DHT22;35135;47.510;19.036;2022-07-10T07:14:54;25.30;43.70
35325;DHT22;35135;47.510;19.036;2022-07-10T07:17:40;25.30;43.60
35325;DHT22;35135;47.510;19.036;2022-07-10T07:20:32;25.30;43.50
35325;DHT22;35135;47.510;19.036;2022-07-10T07:23:28;25.30;43.50
35325;DHT22;35135;47.510;19.036;2022-07-10T07:26:01;25.30;43.50
35325;DHT22;35135;47.510;19.036;2022-07-10T07:28:41;25.30;43.60
35325;DHT22;35135;47.510;19.036;2022-07-10T07:31:32;25.30;43.70
35325;DHT22;35135;47.510;19.036;2022-07-10T07:34:07;25.30;43.80
35325;DHT22;35135;47.510;19.036;2022-07-10T07:36:51;25.30;43.70
35325;DHT22;35135;47.510;19.036;2022-07-10T07:39:44;25.30;43.70
35325;DHT22;35135;47.510;19.036;2022-07-10T07:42:39;25.30;43.80
35325;DHT22;35135;47.510;19.036;2022-07-10T07:45:09;25.30;43.90
35325;DHT22;35135;47.510;19.036;2022-07-10T07:47:59;25.30;44.30
35325;DHT22;35135;47.510;19.036;2022-07-10T07:50:33;25.40;44.10
35325;DHT22;35135;47.510;19.036;2022-07-10T07:53:04;25.40;44.30
35325;DHT22;35135;47.510;19.036;2022-07-10T07:55:33;25.50;44.20
35325;DHT22;35135;47.510;19.036;2022-07-10T07:58:13;25.50;44.00
35325;DHT22;35135;47.510;19.036;2022-07-10T08:00:39;25.50;44.00
35325;DHT22;35135;47.510;19.036;2022-07-10T08:03:30;25.60;44.20
35325;DHT22;35135;47.510;19.036;2022-07-10T08:05:58;25.60;44.00
35325;DHT22;35135;47.510;19.036;2022-07-10T08:08:42;25.70;44.20
35325;DHT22;35135;47.510;19.036;2022-07-10T08:11:22;25.70;44.30
35325;DHT22;35135;47.510;19.036;2022-07-10T08:14:12;25.70;43.70
35325;DHT22;35135;47.510;19.036;2022-07-10T08:16:50;25.80;43.40
35325;DHT22;35135;47.510;19.036;2022-07-10T08:19:26;25.70;43.10
35325;DHT22;35135;47.510;19.036;2022-07-10T08:21:52;25.70;42.90
35325;DHT22;35135;47.510;19.036;2022-07-10T08:24:29;25.70;42.70
35325;DHT22;35135;47.510;19.036;2022-07-10T08:27:37;25.70;42.60
35325;DHT22;35135;47.510;19.036;2022-07-10T08:30:24;25.80;42.60
35325;DHT22;35135;47.510;19.036;2022-07-10T08:32:54;25.70;42.40
35325;DHT22;35135;47.510;19.036;2022-07-10T08:35:23;25.70;42.10
35325;DHT22;35135;47.510;19.036;2022-07-10T08:38:04;25.70;42.10
35325;DHT22;35135;47.510;19.036;2022-07-10T08:40:35;25.70;42.00
35325;DHT22;35135;47.510;19.036;2022-07-10T08:43:13;25.70;41.90
35325;DHT22;35135;47.510;19.036;2022-07-10T08:46:02;25.70;41.70
35325;DHT22;35135;47.510;19.036;2022-07-10T08:48:52;25.70;41.80
35325;DHT22;35135;47.510;19.036;2022-07-10T08:54:36;25.70;41.60
35325;DHT22;35135;47.510;19.036;2022-07-10T08:57:13;25.70;41.40
35325;DHT22;35135;47.510;19.036;2022-07-10T08:59:51;25.70;41.10
35325;DHT22;35135;47.510;19.036;2022-07-10T09:02:28;25.70;41.60
35325;DHT22;35135;47.510;19.036;2022-07-10T09:05:08;25.70;41.40
35325;DHT22;35135;47.510;19.036;2022-07-10T09:07:43;25.70;42.00
35325;DHT22;35135;47.510;19.036;2022-07-10T09:10:14;25.70;41.20
35325;DHT22;35135;47.510;19.036;2022-07-10T09:13:11;25.70;41.40
35325;DHT22;35135;47.510;19.036;2022-07-10T09:16:38;25.70;41.60
35325;DHT22;35135;47.510;19.036;2022-07-10T09:19:28;25.70;41.80
35325;DHT22;35135;47.510;19.036;2022-07-10T09:22:15;25.70;41.70
35325;DHT22;35135;47.510;19.036;2022-07-10T09:24:58;25.70;41.60
35325;DHT22;35135;47.510;19.036;2022-07-10T09:27:58;25.70;41.40
35325;DHT22;35135;47.510;19.036;2022-07-10T09:30:39;25.70;41.30
35325;DHT22;35135;47.510;19.036;2022-07-10T09:33:31;25.70;41.20
35325;DHT22;35135;47.510;19.036;2022-07-10T09:36:11;25.70;41.10
35325;DHT22;35135;47.510;19.036;2022-07-10T09:38:56;25.70;41.20
35325;DHT22;35135;47.510;19.036;2022-07-10T09:41:31;25.70;41.20
35325;DHT22;35135;47.510;19.036;2022-07-10T09:44:05;25.70;41.00
35325;DHT22;35135;47.510;19.036;2022-07-10T09:46:40;25.70;40.50
35325;DHT22;35135;47.510;19.036;2022-07-10T09:49:13;25.70;40.40
35325;DHT22;35135;47.510;19.036;2022-07-10T09:51:57;25.70;40.60
35325;DHT22;35135;47.510;19.036;2022-07-10T09:54:34;25.70;40.80
35325;DHT22;35135;47.510;19.036;2022-07-10T09:57:07;25.70;40.80
35325;DHT22;35135;47.510;19.036;2022-07-10T09:59:40;25.70;40.90
35325;DHT22;35135;47.510;19.036;2022-07-10T10:02:16;25.70;40.70
35325;DHT22;35135;47.510;19.036;2022-07-10T10:04:59;25.70;41.00
35325;DHT22;35135;47.510;19.036;2022-07-10T10:07:29;25.70;40.60
35325;DHT22;35135;47.510;19.036;2022-07-10T10:09:59;25.70;40.10
35325;DHT22;35135;47.510;19.036;2022-07-10T10:12:44;25.70;40.20
35325;DHT22;35135;47.510;19.036;2022-07-10T10:15:18;25.70;40.40
35325;DHT22;35135;47.510;19.036;2022-07-10T10:18:05;25.70;40.00
35325;DHT22;35135;47.510;19.036;2022-07-10T10:20:36;25.70;40.10
35325;DHT22;35135;47.510;19.036;2022-07-10T10:23:22;25.70;39.90
35325;DHT22;35135;47.510;19.036;2022-07-10T10:25:55;25.80;40.00
35325;DHT22;35135;47.510;19.036;2022-07-10T10:28:34;25.80;39.50
35325;DHT22;35135;47.510;19.036;2022-07-10T10:31:33;25.70;39.30
35325;DHT22;35135;47.510;19.036;2022-07-10T10:34:04;25.70;39.10
35325;DHT22;35135;47.510;19.036;2022-07-10T10:36:50;25.80;39.00
35325;DHT22;35135;47.510;19.036;2022-07-10T10:39:23;25.80;39.30
35325;DHT22;35135;47.510;19.036;2022-07-10T10:41:55;25.80;38.80
35325;DHT22;35135;47.510;19.036;2022-07-10T10:44:36;25.80;38.60
35325;DHT22;35135;47.510;19.036;2022-07-10T10:47:14;25.70;38.70
35325;DHT22;35135;47.510;19.036;2022-07-10T10:49:54;25.80;38.60
35325;DHT22;35135;47.510;19.036;2022-07-10T10:53:00;25.70;38.50
35325;DHT22;35135;47.510;19.036;2022-07-10T10:55:29;25.70;38.30
35325;DHT22;35135;47.510;19.036;2022-07-10T10:58:15;25.70;38.60
35325;DHT22;35135;47.510;19.036;2022-07-10T11:03:37;25.70;38.50
35325;DHT22;35135;47.510;19.036;2022-07-10T11:06:07;25.80;37.70
35325;DHT22;35135;47.510;19.036;2022-07-10T11:08:41;25.80;37.50
35325;DHT22;35135;47.510;19.036;2022-07-10T11:11:37;25.80;36.70
35325;DHT22;35135;47.510;19.036;2022-07-10T11:14:09;25.80;37.10
35325;DHT22;35135;47.510;19.036;2022-07-10T11:16:45;25.80;37.60
35325;DHT22;35135;47.510;19.036;2022-07-10T11:19:23;25.80;37.80
35325;DHT22;35135;47.510;19.036;2022-07-10T11:28:21;25.80;37.90
35325;DHT22;35135;47.510;19.036;2022-07-10T11:30:53;25.80;37.90
35325;DHT22;35135;47.510;19.036;2022-07-10T11:33:30;25.80;36.70
35325;DHT22;35135;47.510;19.036;2022-07-10T11:36:27;25.80;37.00
35325;DHT22;35135;47.510;19.036;2022-07-10T11:39:24;25.80;37.10
35325;DHT22;35135;47.510;19.036;2022-07-10T11:41:54;25.80;37.10
35325;DHT22;35135;47.510;19.036;2022-07-10T11:44:27;25.80;37.10
35325;DHT22;35135;47.510;19.036;2022-07-10T11:47:25;25.80;37.40
35325;DHT22;35135;47.510;19.036;2022-07-10T11:50:02;25.80;37.60
35325;DHT22;35135;47.510;19.036;2022-07-10T11:52:47;25.80;37.60
35325;DHT22;35135;47.510;19.036;2022-07-10T11:55:26;25.80;37.70
35325;DHT22;35135;47.510;19.036;2022-07-10T11:57:59;25.80;37.30
35325;DHT22;35135;47.510;19.036;2022-07-10T12:00:30;25.80;37.30
35325;DHT22;35135;47.510;19.036;2022-07-10T12:03:14;25.70;37.10
35325;DHT22;35135;47.510;19.036;2022-07-10T12:05:45;25.70;37.10
35325;DHT22;35135;47.510;19.036;2022-07-10T12:08:17;25.70;37.00
35325;DHT22;35135;47.510;19.036;2022-07-10T12:10:43;25.70;36.60
35325;DHT22;35135;47.510;19.036;2022-07-10T12:13:16;25.70;36.90
35325;DHT22;35135;47.510;19.036;2022-07-10T12:16:07;25.70;37.10
35325;DHT22;35135;47.510;19.036;2022-07-10T12:18:44;25.70;36.40
35325;DHT22;35135;47.510;19.036;2022-07-10T12:21:21;25.70;36.70
35325;DHT22;35135;47.510;19.036;2022-07-10T12:24:16;25.70;37.00
35325;DHT22;35135;47.510;19.036;2022-07-10T12:26:56;25.70;36.50
35325;DHT22;35135;47.510;19.036;2022-07-10T12:29:34;25.70;36.50
35325;DHT22;35135;47.510;19.036;2022-07-10T12:32:02;25.70;35.90
35325;DHT22;35135;47.510;19.036;2022-07-10T12:34:41;25.70;35.80
35325;DHT22;35135;47.510;19.036;2022-07-10T12:37:22;25.70;36.10
35325;DHT22;35135;47.510;19.036;2022-07-10T12:40:06;25.70;36.10
35325;DHT22;35135;47.510;19.036;2022-07-10T12:43:08;25.70;36.50
35325;DHT22;35135;47.510;19.036;2022-07-10T12:46:07;25.70;36.50
35325;DHT22;35135;47.510;19.036;2022-07-10T12:48:54;25.70;36.50
35325;DHT22;35135;47.510;19.036;2022-07-10T12:51:52;25.70;36.60
35325;DHT22;35135;47.510;19.036;2022-07-10T12:54:36;25.70;36.80
35325;DHT22;35135;47.510;19.036;2022-07-10T12:57:07;25.70;36.60
35325;DHT22;35135;47.510;19.036;2022-07-10T12:59:37;25.70;36.70
35325;DHT22;35135;47.510;19.036;2022-07-10T13:02:31;25.70;36.50
35325;DHT22;35135;47.510;19.036;2022-07-10T13:05:03;25.70;36.40
35325;DHT22;35135;47.510;19.036;2022-07-10T13:07:36;25.70;36.20
35325;DHT22;35135;47.510;19.036;2022-07-10T13:10:13;25.70;36.20
35325;DHT22;35135;47.510;19.036;2022-07-10T13:12:45;25.70;36.30
35325;DHT22;35135;47.510;19.036;2022-07-10T13:15:47;25.70;36.70
35325;DHT22;35135;47.510;19.036;2022-07-10T13:18:29;25.70;36.80
35325;DHT22;35135;47.510;19.036;2022-07-10T13:21:13;25.70;36.70
35325;DHT22;35135;47.510;19.036;2022-07-10T13:23:45;25.80;37.40
35325;DHT22;35135;47.510;19.036;2022-07-10T13:26:25;25.70;36.50
35325;DHT22;35135;47.510;19.036;2022-07-10T13:28:59;25.70;36.10
35325;DHT22;35135;47.510;19.036;2022-07-10T13:31:26;25.70;36.30
35325;DHT22;35135;47.510;19.036;2022-07-10T13:34:00;25.70;36.30
35325;DHT22;35135;47.510;19.036;2022-07-10T13:36:49;25.70;36.00
35325;DHT22;35135;47.510;19.036;2022-07-10T13:39:17;25.80;36.30
35325;DHT22;35135;47.510;19.036;2022-07-10T13:42:13;25.70;36.10
35325;DHT22;35135;47.510;19.036;2022-07-10T13:44:51;25.70;35.70
35325;DHT22;35135;47.510;19.036;2022-07-10T13:47:38;25.80;35.90
35325;DHT22;35135;47.510;19.036;2022-07-10T13:50:20;25.70;35.50
35325;DHT22;35135;47.510;19.036;2022-07-10T13:52:49;25.70;35.30
35325;DHT22;35135;47.510;19.036;2022-07-10T13:55:21;25.70;35.60
35325;DHT22;35135;47.510;19.036;2022-07-10T13:58:21;25.70;35.30
35325;DHT22;35135;47.510;19.036;2022-07-10T14:00:58;25.70;35.20
35325;DHT22;35135;47.510;19.036;2022-07-10T14:03:33;25.70;35.10
35325;DHT22;35135;47.510;19.036;2022-07-10T14:06:05;25.70;35.00
35325;DHT22;35135;47.510;19.036;2022-07-10T14:09:02;25.70;35.00
35325;DHT22;35135;47.510;19.036;2022-07-10T14:11:56;25.70;35.30
35325;DHT22;35135;47.510;19.036;2022-07-10T14:14:39;25.70;34.70
35325;DHT22;35135;47.510;19.036;2022-07-10T14:17:27;25.70;34.80
35325;DHT22;35135;47.510;19.036;2022-07-10T14:20:09;25.70;34.50
35325;DHT22;35135;47.510;19.036;2022-07-10T14:23:07;25.70;34.40
35325;DHT22;35135;47.510;19.036;2022-07-10T14:25:43;25.70;34.60
35325;DHT22;35135;47.510;19.036;2022-07-10T14:28:28;25.70;33.80
35325;DHT22;35135;47.510;19.036;2022-07-10T14:31:10;25.70;34.30
35325;DHT22;35135;47.510;19.036;2022-07-10T14:33:46;25.70;34.30
35325;DHT22;35135;47.510;19.036;2022-07-10T14:36:19;25.70;34.20
35325;DHT22;35135;47.510;19.036;2022-07-10T14:38:57;25.70;33.60
35325;DHT22;35135;47.510;19.036;2022-07-10T14:41:34;25.70;33.10
35325;DHT22;35135;47.510;19.036;2022-07-10T14:44:01;25.70;33.40
35325;DHT22;35135;47.510;19.036;2022-07-10T14:46:33;25.70;33.10
35325;DHT22;35135;47.510;19.036;2022-07-10T14:49:18;25.70;32.70
35325;DHT22;35135;47.510;19.036;2022-07-10T14:52:00;25.70;33.20
35325;DHT22;35135;47.510;19.036;2022-07-10T14:54:38;25.70;33.20
35325;DHT22;35135;47.510;19.036;2022-07-10T14:57:18;25.70;32.70
35325;DHT22;35135;47.510;19.036;2022-07-10T14:59:52;25.70;32.80
35325;DHT22;35135;47.510;19.036;2022-07-10T15:02:22;25.70;33.20
35325;DHT22;35135;47.510;19.036;2022-07-10T15:04:53;25.70;33.30
35325;DHT22;35135;47.510;19.036;2022-07-10T15:07:35;25.70;32.90
35325;DHT22;35135;47.510;19.036;2022-07-10T15:10:08;25.70;32.90
35325;DHT22;35135;47.510;19.036;2022-07-10T15:12:36;25.60;33.20
35325;DHT22;35135;47.510;19.036;2022-07-10T15:15:43;25.70;33.20
35325;DHT22;35135;47.510;19.036;2022-07-10T15:18:40;25.70;33.10
35325;DHT22;35135;47.510;19.036;2022-07-10T15:21:15;25.70;33.20
35325;DHT22;35135;47.510;19.036;2022-07-10T15:23:59;25.70;32.90
35325;DHT22;35135;47.510;19.036;2022-07-10T15:26:51;25.70;32.50
35325;DHT22;35135;47.510;19.036;2022-07-10T15:29:21;25.70;32.70
35325;DHT22;35135;47.510;19.036;2022-07-10T15:32:00;25.70;32.40
35325;DHT22;35135;47.510;19.036;2022-07-10T15:34:27;25.70;32.40
35325;DHT22;35135;47.510;19.036;2022-07-10T15:36:55;25.70;32.30
35325;DHT22;35135;47.510;19.036;2022-07-10T15:39:32;25.70;32.10
35325;DHT22;35135;47.510;19.036;2022-07-10T15:42:11;25.60;32.30
35325;DHT22;35135;47.510;19.036;2022-07-10T15:44:45;25.60;32.40
35325;DHT22;35135;47.510;19.036;2022-07-10T15:47:18;25.60;32.50
35325;DHT22;35135;47.510;19.036;2022-07-10T15:49:50;25.60;32.70
35325;DHT22;35135;47.510;19.036;2022-07-10T15:52:20;25.60;32.90
35325;DHT22;35135;47.510;19.036;2022-07-10T15:54:46;25.60;31.80
35325;DHT22;35135;47.510;19.036;2022-07-10T15:57:19;25.60;32.80
35325;DHT22;35135;47.510;19.036;2022-07-10T15:59:56;25.60;32.70
35325;DHT22;35135;47.510;19.036;2022-07-10T16:02:27;25.60;32.10
35325;DHT22;35135;47.510;19.036;2022-07-10T16:04:58;25.60;32.40
35325;DHT22;35135;47.510;19.036;2022-07-10T16:07:45;25.60;32.40
35325;DHT22;35135;47.510;19.036;2022-07-10T16:10:42;25.60;32.20
35325;DHT22;35135;47.510;19.036;2022-07-10T16:16:08;25.50;31.00
35325;DHT22;35135;47.510;19.036;2022-07-10T16:19:02;25.50;31.80
35325;DHT22;35135;47.510;19.036;2022-07-10T16:21:50;25.50;31.90
35325;DHT22;35135;47.510;19.036;2022-07-10T16:24:19;25.50;31.90
35325;DHT22;35135;47.510;19.036;2022-07-10T16:27:06;25.50;32.00
35325;DHT22;35135;47.510;19.036;2022-07-10T16:29:39;25.50;32.00
35325;DHT22;35135;47.510;19.036;2022-07-10T16:32:31;25.50;31.60
35325;DHT22;35135;47.510;19.036;2022-07-10T16:35:17;25.50;32.10
35325;DHT22;35135;47.510;19.036;2022-07-10T16:37:50;25.50;31.70
35325;DHT22;35135;47.510;19.036;2022-07-10T16:40:23;25.50;31.90
35325;DHT22;35135;47.510;19.036;2022-07-10T16:42:56;25.50;31.50
35325;DHT22;35135;47.510;19.036;2022-07-10T16:45:33;25.50;32.00
35325;DHT22;35135;47.510;19.036;2022-07-10T16:48:27;25.50;31.60